createdAt,value
2018-01-29T00:00:59.517Z,99.18
2018-01-29T00:02:09.378Z,99.27
2018-01-29T00:03:19.527Z,98.79
2018-01-29T00:04:29.668Z,98.41
2018-01-29T00:05:39.839Z,98.89
2018-01-29T00:06:50.030Z,99.04
2018-01-29T00:08:00.191Z,99.04
2018-01-29T00:09:10.454Z,98.56
2018-01-29T00:10:20.604Z,98.75
2018-01-29T00:11:30.760Z,98.46
2018-01-29T00:12:41.022Z,98.85
2018-01-29T00:13:51.165Z,98.65
2018-01-29T00:15:02.465Z,98.56
2018-01-29T00:16:12.616Z,98.27
2018-01-29T00:17:22.763Z,98.46
2018-01-29T00:18:33.084Z,98.27
2018-01-29T00:19:43.293Z,98.46
2018-01-29T00:20:53.542Z,97.99
2018-01-29T00:22:03.423Z,97.7
2018-01-29T00:23:13.584Z,97.8
2018-01-29T00:24:23.715Z,97.61
2018-01-29T00:25:33.866Z,97.99
2018-01-29T00:26:44.103Z,97.8
2018-01-29T00:27:54.339Z,97.61
2018-01-29T00:29:04.538Z,97.51
2018-01-29T00:30:14.748Z,97.61
2018-01-29T00:31:24.952Z,97.61
2018-01-29T00:32:34.744Z,97.22
2018-01-29T00:33:44.912Z,96.94
2018-01-29T00:34:54.832Z,97.22
2018-01-29T00:36:04.980Z,97.03
2018-01-29T00:37:15.146Z,96.94
2018-01-29T00:38:25.340Z,96.84
2018-01-29T00:39:35.465Z,96.65
2018-01-29T00:40:45.603Z,96.65
2018-01-29T00:41:55.720Z,97.41
2018-01-29T00:43:05.837Z,96.46
2018-01-29T00:44:16.002Z,96.65
2018-01-29T00:45:26.204Z,96.36
2018-01-29T00:46:36.476Z,96.56
2018-01-29T00:47:46.620Z,96.27
2018-01-29T00:48:56.772Z,96.36
2018-01-29T00:50:07.037Z,96.36
2018-01-29T00:51:17.315Z,96.08
2018-01-29T00:52:27.265Z,96.27
2018-01-29T00:53:37.386Z,96.27
2018-01-29T00:54:47.541Z,95.98
2018-01-29T00:55:57.658Z,95.89
2018-01-29T00:57:07.790Z,95.98
2018-01-29T00:58:17.900Z,96.08
2018-01-29T00:59:27.923Z,95.79
2018-01-29T01:00:38.197Z,95.98
2018-01-29T01:01:48.348Z,96.08
2018-01-29T01:02:58.575Z,96.36
2018-01-29T01:04:08.534Z,95.89
2018-01-29T01:05:18.637Z,95.89
2018-01-29T01:06:28.777Z,96.08
2018-01-29T01:07:38.976Z,96.08
2018-01-29T01:08:49.108Z,96.08
2018-01-29T01:09:59.316Z,95.98
2018-01-29T01:11:09.183Z,96.36
2018-01-29T01:12:19.316Z,96.36
2018-01-29T01:13:29.485Z,96.08
2018-01-29T01:14:39.609Z,96.46
2018-01-29T01:15:49.765Z,95.7
2018-01-29T01:16:59.885Z,96.08
2018-01-29T01:18:10.028Z,95.89
2018-01-29T01:19:20.192Z,95.7
2018-01-29T01:20:30.410Z,96.08
2018-01-29T01:21:40.585Z,95.89
2018-01-29T01:22:50.736Z,96.27
2018-01-29T01:24:00.872Z,96.17
2018-01-29T01:25:10.997Z,95.89
2018-01-29T01:26:20.996Z,95.89
2018-01-29T01:27:31.314Z,95.89
2018-01-29T01:28:41.689Z,95.89
2018-01-29T01:29:51.905Z,96.08
2018-01-29T01:31:02.028Z,95.98
2018-01-29T01:32:12.281Z,96.17
2018-01-29T01:33:22.429Z,95.89
2018-01-29T01:34:32.584Z,95.89
2018-01-29T01:35:42.801Z,95.7
2018-01-29T01:36:53.013Z,95.89
2018-01-29T01:38:03.395Z,96.08
2018-01-29T01:39:13.559Z,95.89
2018-01-29T01:40:23.786Z,95.7
2018-01-29T01:41:33.949Z,95.89
2018-01-29T01:42:44.199Z,95.89
2018-01-29T01:43:54.323Z,95.7
2018-01-29T01:45:04.468Z,95.89
2018-01-29T01:46:14.647Z,95.89
2018-01-29T01:47:24.743Z,95.89
2018-01-29T01:48:34.925Z,95.89
2018-01-29T01:49:45.046Z,95.89
2018-01-29T01:50:55.202Z,95.98
2018-01-29T01:52:05.365Z,96.56
2018-01-29T01:53:15.483Z,96.75
2018-01-29T01:54:25.646Z,96.75
2018-01-29T01:55:35.784Z,96.56
2018-01-29T01:56:45.918Z,96.56
2018-01-29T01:57:56.140Z,96.36
2018-01-29T01:59:06.304Z,96.36
2018-01-29T02:00:16.511Z,96.08
2018-01-29T02:01:26.654Z,96.27
2018-01-29T02:02:36.938Z,96.65
2018-01-29T02:03:47.079Z,97.03
2018-01-29T02:04:57.421Z,97.13
2018-01-29T02:06:07.612Z,96.94
2018-01-29T02:07:17.930Z,97.22
2018-01-29T02:08:28.108Z,96.94
2018-01-29T02:09:37.986Z,97.03
2018-01-29T02:10:47.913Z,96.94
2018-01-29T02:11:58.269Z,97.22
2018-01-29T02:13:08.417Z,97.03
2018-01-29T02:14:18.626Z,96.46
2018-01-29T02:15:28.870Z,96.75
2018-01-29T02:16:38.744Z,96.17
2018-01-29T02:17:48.886Z,96.17
2018-01-29T02:18:59.057Z,96.08
2018-01-29T02:20:09.204Z,96.17
2018-01-29T02:21:19.385Z,96.17
2018-01-29T02:22:29.497Z,96.17
2018-01-29T02:23:39.427Z,96.36
2018-01-29T02:24:49.543Z,96.27
2018-01-29T02:25:59.679Z,96.36
2018-01-29T02:27:09.803Z,96.75
2018-01-29T02:28:20.024Z,96.08
2018-01-29T02:29:30.213Z,96.08
2018-01-29T02:30:40.332Z,95.7
2018-01-29T02:31:50.451Z,95.98
2018-01-29T02:33:00.752Z,95.89
2018-01-29T02:34:10.938Z,96.08
2018-01-29T02:35:21.074Z,96.08
2018-01-29T02:36:31.491Z,96.36
2018-01-29T02:37:41.740Z,95.7
2018-01-29T02:38:52.044Z,95.61
2018-01-29T02:40:02.227Z,95.7
2018-01-29T02:41:12.371Z,95.41
2018-01-29T02:42:22.503Z,95.41
2018-01-29T02:43:32.723Z,95.61
2018-01-29T02:44:42.871Z,95.12
2018-01-29T02:45:53.030Z,96.17
2018-01-29T02:47:03.151Z,95.51
2018-01-29T02:48:13.289Z,95.79
2018-01-29T02:49:23.158Z,95.89
2018-01-29T02:50:33.085Z,95.89
2018-01-29T02:51:43.437Z,95.41
2018-01-29T02:52:53.622Z,95.51
2018-01-29T02:54:03.879Z,95.61
2018-01-29T02:55:14.202Z,95.61
2018-01-29T02:56:24.346Z,95.7
2018-01-29T02:57:34.491Z,95.61
2018-01-29T02:58:44.720Z,94.93
2018-01-29T02:59:54.893Z,95.12
2018-01-29T03:01:05.050Z,95.12
2018-01-29T03:02:15.323Z,95.12
2018-01-29T03:03:25.791Z,94.74
2018-01-29T03:04:35.925Z,94.93
2018-01-29T03:05:46.108Z,94.84
2018-01-29T03:06:56.354Z,94.84
2018-01-29T03:08:06.527Z,95.12
2018-01-29T03:09:16.800Z,95.12
2018-01-29T03:10:26.919Z,94.93
2018-01-29T03:11:37.053Z,94.93
2018-01-29T03:12:47.245Z,95.22
2018-01-29T03:13:57.443Z,95.03
2018-01-29T03:15:07.536Z,94.74
2018-01-29T03:16:17.685Z,94.74
2018-01-29T03:17:27.794Z,94.93
2018-01-29T03:18:37.905Z,94.93
2018-01-29T03:19:48.016Z,94.65
2018-01-29T03:20:58.121Z,94.84
2018-01-29T03:22:08.260Z,94.56
2018-01-29T03:23:18.406Z,94.56
2018-01-29T03:24:28.612Z,94.27
2018-01-29T03:25:38.763Z,94.46
2018-01-29T03:26:49.022Z,94.46
2018-01-29T03:27:59.241Z,94.37
2018-01-29T03:29:09.427Z,94.51
2018-01-29T03:30:19.751Z,94.46
2018-01-29T03:31:30.020Z,94.17
2018-01-29T03:32:40.272Z,94.46
2018-01-29T03:33:50.419Z,94.17
2018-01-29T03:35:00.606Z,94.27
2018-01-29T03:36:10.484Z,93.98
2018-01-29T03:37:20.637Z,94.56
2018-01-29T03:38:30.790Z,94.37
2018-01-29T03:39:40.697Z,94.27
2018-01-29T03:40:50.818Z,94.51
2018-01-29T03:42:00.935Z,94.41
2018-01-29T03:43:11.096Z,94.22
2018-01-29T03:44:21.385Z,94.27
2018-01-29T03:45:31.654Z,93.93
2018-01-29T03:46:41.936Z,94.27
2018-01-29T03:47:52.170Z,94.27
2018-01-29T03:49:02.325Z,94.17
2018-01-29T03:50:12.182Z,94.17
2018-01-29T03:51:22.365Z,93.88
2018-01-29T03:52:32.646Z,94.37
2018-01-29T03:53:42.516Z,93.93
2018-01-29T03:54:52.662Z,94.37
2018-01-29T03:56:02.794Z,94.41
2018-01-29T03:57:12.913Z,94.37
2018-01-29T03:58:23.052Z,93.98
2018-01-29T03:59:33.236Z,94.46
2018-01-29T04:00:43.585Z,94.37
2018-01-29T04:01:53.734Z,94.08
2018-01-29T04:03:03.860Z,94.27
2018-01-29T04:04:13.757Z,94.37
2018-01-29T04:05:23.898Z,94.17
2018-01-29T04:06:34.057Z,94.46
2018-01-29T04:07:44.189Z,94.27
2018-01-29T04:08:54.289Z,94.17
2018-01-29T04:10:04.427Z,94.27
2018-01-29T04:11:14.637Z,94.51
2018-01-29T04:12:24.846Z,94.37
2018-01-29T04:13:34.981Z,94.46
2018-01-29T04:14:45.200Z,94.41
2018-01-29T04:15:55.388Z,94.7
2018-01-29T04:17:05.538Z,94.46
2018-01-29T04:18:15.670Z,94.22
2018-01-29T04:19:25.772Z,93.98
2018-01-29T04:20:35.946Z,93.98
2018-01-29T04:21:46.111Z,94.17
2018-01-29T04:22:56.280Z,94.22
2018-01-29T04:24:06.458Z,94.03
2018-01-29T04:25:16.867Z,94.03
2018-01-29T04:26:27.082Z,93.98
2018-01-29T04:27:37.296Z,94.03
2018-01-29T04:28:47.049Z,93.88
2018-01-29T04:29:57.206Z,93.93
2018-01-29T04:31:07.324Z,94.22
2018-01-29T04:32:17.564Z,93.74
2018-01-29T04:33:27.858Z,93.27
2018-01-29T04:34:38.122Z,93.46
2018-01-29T04:35:48.315Z,93.41
2018-01-29T04:36:58.567Z,93.55
2018-01-29T04:38:08.752Z,93.32
2018-01-29T04:39:18.890Z,93.6
2018-01-29T04:40:29.026Z,93.32
2018-01-29T04:41:39.489Z,93.27
2018-01-29T04:42:49.682Z,93.36
2018-01-29T04:43:59.877Z,93.32
2018-01-29T04:45:10.063Z,93.36
2018-01-29T04:46:20.298Z,93.55
2018-01-29T04:47:30.545Z,93.41
2018-01-29T04:48:40.704Z,93.55
2018-01-29T04:49:50.513Z,93.6
2018-01-29T04:51:00.634Z,93.22
2018-01-29T04:52:10.817Z,93.12
2018-01-29T04:53:20.980Z,92.65
2018-01-29T04:54:31.212Z,92.74
2018-01-29T04:55:41.474Z,92.46
2018-01-29T04:56:51.760Z,92.74
2018-01-29T04:58:01.920Z,92.79
2018-01-29T04:59:12.068Z,92.93
2018-01-29T05:00:22.216Z,92.69
2018-01-29T05:01:32.332Z,93.03
2018-01-29T05:02:42.586Z,92.55
2018-01-29T05:03:52.440Z,92.22
2018-01-29T05:05:02.556Z,92.46
2018-01-29T05:06:12.665Z,92.69
2018-01-29T05:07:22.849Z,92.27
2018-01-29T05:08:32.994Z,92.79
2018-01-29T05:09:43.221Z,92.65
2018-01-29T05:10:53.369Z,92.55
2018-01-29T05:12:03.473Z,92.55
2018-01-29T05:13:13.625Z,92.65
2018-01-29T05:14:23.588Z,92.55
2018-01-29T05:15:33.899Z,92.69
2018-01-29T05:16:44.036Z,92.5
2018-01-29T05:17:54.358Z,92.32
2018-01-29T05:19:04.563Z,92.69
2018-01-29T05:20:14.707Z,92.65
2018-01-29T05:21:24.922Z,92.6
2018-01-29T05:22:35.172Z,92.69
2018-01-29T05:23:45.292Z,92.6
2018-01-29T05:24:55.431Z,92.69
2018-01-29T05:26:05.535Z,92.5
2018-01-29T05:27:15.661Z,92.6
2018-01-29T05:28:25.535Z,92.5
2018-01-29T05:29:35.639Z,92.55
2018-01-29T05:30:45.826Z,92.41
2018-01-29T05:31:56.079Z,92.65
2018-01-29T05:33:06.259Z,92.6
2018-01-29T05:34:16.440Z,92.79
2018-01-29T05:35:26.602Z,92.69
2018-01-29T05:36:36.470Z,92.46
2018-01-29T05:37:46.583Z,92.6
2018-01-29T05:38:56.705Z,92.65
2018-01-29T05:40:06.829Z,92.12
2018-01-29T05:41:16.728Z,92.46
2018-01-29T05:42:26.997Z,92.46
2018-01-29T05:43:37.126Z,91.64
2018-01-29T05:44:47.303Z,91.64
2018-01-29T05:45:57.419Z,91.46
2018-01-29T05:47:07.535Z,91.64
2018-01-29T05:48:17.390Z,91.17
2018-01-29T05:49:27.523Z,90.74
2018-01-29T05:50:37.658Z,90.93
2018-01-29T05:51:47.854Z,91.03
2018-01-29T05:52:58.020Z,91.13
2018-01-29T05:54:07.914Z,90.55
2018-01-29T05:55:18.034Z,90.55
2018-01-29T05:56:28.173Z,90.59
2018-01-29T05:57:38.294Z,90.98
2018-01-29T05:58:48.518Z,90.59
2018-01-29T05:59:58.673Z,90.98
2018-01-29T06:01:08.793Z,90.45
2018-01-29T06:02:18.935Z,90.55
2018-01-29T06:03:29.108Z,90.45
2018-01-29T06:04:39.269Z,90.88
2018-01-29T06:05:49.144Z,90.74
2018-01-29T06:06:59.246Z,90.84
2018-01-29T06:08:09.490Z,90.93
2018-01-29T06:09:19.642Z,90.69
2018-01-29T06:10:29.863Z,90.79
2018-01-29T06:11:40.094Z,90.64
2018-01-29T06:12:50.208Z,89.89
2018-01-29T06:14:00.087Z,90.17
2018-01-29T06:15:10.275Z,90.36
2018-01-29T06:16:20.433Z,90.74
2018-01-29T06:17:30.593Z,89.98
2018-01-29T06:18:40.714Z,90.12
2018-01-29T06:19:50.940Z,90.64
2018-01-29T06:21:01.047Z,90.08
2018-01-29T06:22:11.157Z,89.89
2018-01-29T06:23:21.410Z,90.08
2018-01-29T06:24:31.600Z,89.89
2018-01-29T06:25:41.712Z,89.6
2018-01-29T06:26:51.840Z,89.4
2018-01-29T06:28:02.027Z,89.6
2018-01-29T06:29:12.205Z,89.79
2018-01-29T06:30:22.325Z,89.79
2018-01-29T06:31:32.527Z,89.79
2018-01-29T06:32:42.717Z,89.79
2018-01-29T06:33:52.876Z,89.6
2018-01-29T06:35:03.044Z,89.89
2018-01-29T06:36:13.300Z,89.31
2018-01-29T06:37:23.176Z,89.22
2018-01-29T06:38:33.316Z,89.31
2018-01-29T06:39:43.548Z,89.4
2018-01-29T06:40:53.656Z,89.79
2018-01-29T06:42:03.958Z,89.4
2018-01-29T06:43:14.157Z,89.22
2018-01-29T06:44:24.314Z,89.22
2018-01-29T06:45:34.432Z,89.22
2018-01-29T06:46:44.372Z,89.6
2018-01-29T06:47:54.559Z,89.6
2018-01-29T06:49:04.703Z,89.22
2018-01-29T06:50:14.819Z,89.12
2018-01-29T06:51:24.941Z,89.22
2018-01-29T06:52:35.060Z,89.69
2018-01-29T06:53:45.203Z,89.31
2018-01-29T06:54:55.490Z,89.22
2018-01-29T06:56:05.748Z,89.22
2018-01-29T06:57:15.931Z,89.31
2018-01-29T06:58:26.094Z,89.31
2018-01-29T06:59:36.264Z,89.31
2018-01-29T07:00:46.388Z,89.31
2018-01-29T07:01:56.491Z,89.22
2018-01-29T07:03:06.627Z,89.31
2018-01-29T07:04:16.893Z,88.93
2018-01-29T07:05:27.053Z,88.93
2018-01-29T07:06:37.192Z,89.31
2018-01-29T07:07:47.131Z,88.93
2018-01-29T07:08:57.241Z,88.84
2018-01-29T07:10:07.390Z,89.03
2018-01-29T07:11:17.537Z,89.03
2018-01-29T07:12:27.786Z,89.03
2018-01-29T07:13:37.615Z,88.93
2018-01-29T07:14:47.734Z,89.12
2018-01-29T07:15:57.880Z,89.22
2018-01-29T07:17:08.097Z,89.22
2018-01-29T07:18:18.226Z,88.93
2018-01-29T07:19:28.343Z,89.12
2018-01-29T07:20:38.581Z,89.12
2018-01-29T07:21:48.683Z,88.84
2018-01-29T07:22:59.003Z,88.84
2018-01-29T07:24:09.104Z,89.03
2018-01-29T07:25:19.261Z,88.93
2018-01-29T07:26:29.433Z,88.64
2018-01-29T07:27:39.721Z,88.45
2018-01-29T07:28:49.590Z,89.03
2018-01-29T07:29:59.709Z,89.12
2018-01-29T07:31:09.958Z,88.93
2018-01-29T07:32:20.239Z,89.03
2018-01-29T07:33:30.397Z,88.93
2018-01-29T07:34:40.670Z,88.64
2018-01-29T07:35:50.801Z,88.45
2018-01-29T07:37:01.010Z,88.45
2018-01-29T07:38:11.183Z,88.45
2018-01-29T07:39:21.390Z,87.79
2018-01-29T07:40:31.665Z,87.98
2018-01-29T07:41:41.839Z,87.98
2018-01-29T07:42:52.013Z,87.79
2018-01-29T07:44:02.390Z,87.88
2018-01-29T07:45:12.569Z,88.07
2018-01-29T07:46:22.790Z,87.88
2018-01-29T07:47:33.010Z,87.93
2018-01-29T07:48:43.177Z,87.88
2018-01-29T07:49:53.334Z,88.21
2018-01-29T07:51:03.668Z,88.12
2018-01-29T07:52:13.966Z,87.45
2018-01-29T07:53:24.132Z,87.21
2018-01-29T07:54:34.399Z,86.83
2018-01-29T07:55:44.639Z,86.93
2018-01-29T07:56:54.810Z,87.02
2018-01-29T07:58:04.971Z,86.69
2018-01-29T07:59:15.175Z,87.07
2018-01-29T08:00:25.403Z,86.74
2018-01-29T08:01:35.554Z,86.4
2018-01-29T08:02:45.803Z,86.11
2018-01-29T08:03:55.657Z,86.78
2018-01-29T08:05:05.584Z,86.3
2018-01-29T08:06:15.752Z,86.74
2018-01-29T08:07:25.872Z,86.3
2018-01-29T08:08:36.143Z,86.78
2018-01-29T08:10:56.239Z,86.3
2018-01-29T08:12:06.029Z,86.07
2018-01-29T08:13:16.285Z,86.21
2018-01-29T08:14:26.398Z,86.26
2018-01-29T08:15:36.536Z,86.16
2018-01-29T08:16:46.709Z,85.64
2018-01-29T08:17:56.883Z,85.73
2018-01-29T08:19:07.161Z,85.45
2018-01-29T08:20:17.354Z,85.54
2018-01-29T08:21:27.527Z,85.73
2018-01-29T08:22:37.674Z,85.73
2018-01-29T08:23:47.849Z,85.12
2018-01-29T08:24:58.013Z,84.88
2018-01-29T08:26:08.141Z,85.35
2018-01-29T08:27:18.277Z,85.45
2018-01-29T08:28:28.429Z,85.35
2018-01-29T08:29:38.359Z,85.16
2018-01-29T08:30:48.477Z,85.06
2018-01-29T08:31:58.667Z,85.25
2018-01-29T08:33:08.857Z,85.25
2018-01-29T08:34:19.009Z,84.97
2018-01-29T08:35:29.183Z,84.97
2018-01-29T08:36:39.396Z,84.59
2018-01-29T08:37:49.647Z,84.11
2018-01-29T08:38:59.786Z,84.69
2018-01-29T08:40:09.746Z,84.4
2018-01-29T08:41:19.886Z,84.4
2018-01-29T08:42:30.255Z,84.4
2018-01-29T08:43:40.399Z,84.49
2018-01-29T08:44:50.664Z,84.3
2018-01-29T08:46:00.796Z,83.92
2018-01-29T08:47:10.938Z,84.11
2018-01-29T08:48:20.917Z,83.73
2018-01-29T08:49:31.049Z,83.06
2018-01-29T08:50:41.174Z,83.35
2018-01-29T08:51:51.341Z,83.25
2018-01-29T08:53:01.349Z,83.64
2018-01-29T08:54:11.693Z,83.44
2018-01-29T08:55:21.863Z,83.35
2018-01-29T08:56:32.231Z,83.25
2018-01-29T08:57:42.405Z,83.35
2018-01-29T08:58:52.710Z,83.25
2018-01-29T09:00:03.321Z,82.87
2018-01-29T09:01:13.492Z,83.06
2018-01-29T09:02:23.819Z,83.25
2018-01-29T09:03:34.023Z,83.92
2018-01-29T09:04:44.212Z,83.54
2018-01-29T09:05:54.479Z,83.35
2018-01-29T09:07:04.613Z,83.16
2018-01-29T09:08:14.499Z,83.35
2018-01-29T09:09:24.680Z,83.06
2018-01-29T09:10:34.920Z,83.44
2018-01-29T09:11:45.175Z,83.25
2018-01-29T09:12:55.330Z,82.87
2018-01-29T09:14:05.268Z,83.92
2018-01-29T09:15:15.447Z,83.92
2018-01-29T09:16:25.601Z,83.35
2018-01-29T09:17:35.768Z,83.25
2018-01-29T09:18:46.076Z,83.64
2018-01-29T09:19:55.697Z,82.97
2018-01-29T09:21:05.836Z,82.97
2018-01-29T09:22:16.044Z,82.97
2018-01-29T09:23:26.361Z,83.06
2018-01-29T09:24:36.727Z,83.16
2018-01-29T09:25:46.909Z,82.97
2018-01-29T09:26:56.795Z,82.01
2018-01-29T09:28:06.959Z,82.4
2018-01-29T09:29:17.148Z,82.4
2018-01-29T09:30:27.322Z,82.3
2018-01-29T09:31:37.482Z,82.49
2018-01-29T09:32:47.678Z,82.53
2018-01-29T09:33:57.844Z,82.49
2018-01-29T09:35:08.067Z,82.4
2018-01-29T09:36:18.257Z,81.63
2018-01-29T09:37:28.486Z,81.44
2018-01-29T09:38:38.612Z,81.25
2018-01-29T09:39:48.775Z,81.48
2018-01-29T09:40:58.949Z,81.54
2018-01-29T09:42:09.073Z,81.15
2018-01-29T09:43:19.280Z,80.96
2018-01-29T09:44:29.162Z,80.87
2018-01-29T09:45:39.540Z,80.58
2018-01-29T09:46:49.780Z,80.43
2018-01-29T09:47:59.950Z,80.96
2018-01-29T09:49:10.092Z,80.96
2018-01-29T09:50:20.288Z,81.15
2018-01-29T09:51:30.423Z,81.29
2018-01-29T09:52:40.564Z,80.87
2018-01-29T09:53:50.692Z,81.01
2018-01-29T09:55:00.860Z,80.96
2018-01-29T09:56:11.008Z,81.1
2018-01-29T09:57:21.182Z,80.49
2018-01-29T09:58:31.461Z,80.39
2018-01-29T09:59:41.731Z,80.58
2018-01-29T10:00:51.959Z,80.39
2018-01-29T10:02:02.121Z,80.58
2018-01-29T10:03:12.305Z,80.72
2018-01-29T10:04:22.636Z,80.53
2018-01-29T10:05:32.817Z,80.62
2018-01-29T10:06:42.972Z,80.49
2018-01-29T10:07:53.136Z,80.87
2018-01-29T10:09:03.273Z,80.81
2018-01-29T10:10:13.441Z,80.01
2018-01-29T10:11:23.578Z,79.72
2018-01-29T10:12:33.736Z,79.96
2018-01-29T10:13:43.895Z,80.05
2018-01-29T10:14:54.079Z,79.91
2018-01-29T10:16:04.241Z,80.11
2018-01-29T10:17:14.365Z,79.96
2018-01-29T10:18:24.521Z,79.77
2018-01-29T10:19:34.680Z,79.86
2018-01-29T10:20:44.834Z,80.15
2018-01-29T10:21:54.961Z,78.62
2018-01-29T10:23:05.234Z,79.1
2018-01-29T10:24:15.440Z,78.62
2018-01-29T10:25:25.688Z,78.72
2018-01-29T10:26:35.913Z,78.52
2018-01-29T10:27:46.110Z,78.81
2018-01-29T10:28:56.284Z,79
2018-01-29T10:30:06.541Z,78.91
2018-01-29T10:31:16.733Z,78.43
2018-01-29T10:32:26.883Z,78.43
2018-01-29T10:33:37.062Z,78.23
2018-01-29T10:34:47.187Z,78.23
2018-01-29T10:35:57.336Z,78.05
2018-01-29T10:37:07.466Z,77.67
2018-01-29T10:38:17.593Z,77.67
2018-01-29T10:39:27.831Z,77.76
2018-01-29T10:40:39.013Z,77.76
2018-01-29T10:41:48.896Z,77.95
2018-01-29T10:42:59.035Z,78.14
2018-01-29T10:44:09.208Z,77.76
2018-01-29T10:45:19.454Z,77.57
2018-01-29T10:46:29.587Z,77.57
2018-01-29T10:47:39.612Z,77.19
2018-01-29T10:48:49.777Z,77.67
2018-01-29T10:49:59.896Z,77.67
2018-01-29T10:51:10.049Z,78.05
2018-01-29T10:52:20.272Z,77.76
2018-01-29T10:53:30.450Z,77.28
2018-01-29T10:54:40.641Z,77.28
2018-01-29T10:55:50.925Z,77.95
2018-01-29T10:57:01.208Z,77.67
2018-01-29T10:58:11.453Z,77.67
2018-01-29T10:59:21.635Z,77.76
2018-01-29T11:00:31.802Z,77.86
2018-01-29T11:01:42.022Z,77.76
2018-01-29T11:02:52.216Z,77.19
2018-01-29T11:04:02.134Z,77.19
2018-01-29T11:05:12.292Z,77.09
2018-01-29T11:06:22.552Z,77.19
2018-01-29T11:07:32.774Z,76.52
2018-01-29T11:08:42.549Z,77.09
2018-01-29T11:09:52.689Z,77.38
2018-01-29T11:11:03.007Z,77
2018-01-29T11:12:13.152Z,77.28
2018-01-29T11:13:23.337Z,77.19
2018-01-29T11:14:33.491Z,78.14
2018-01-29T11:15:43.652Z,77.86
2018-01-29T11:16:53.878Z,77.19
2018-01-29T11:18:04.113Z,76.9
2018-01-29T11:19:14.371Z,76.81
2018-01-29T11:20:24.529Z,77.47
2018-01-29T11:21:34.659Z,77.19
2018-01-29T11:22:44.854Z,77.19
2018-01-29T11:23:54.997Z,77.19
2018-01-29T11:25:05.166Z,76.52
2018-01-29T11:26:14.917Z,76.33
2018-01-29T11:27:25.129Z,76.62
2018-01-29T11:28:35.309Z,77.19
2018-01-29T11:29:45.477Z,76.71
2018-01-29T11:30:55.654Z,76.81
2018-01-29T11:32:05.864Z,77.19
2018-01-29T11:33:16.083Z,76.9
2018-01-29T11:34:26.265Z,77.09
2018-01-29T11:35:36.739Z,77.19
2018-01-29T11:36:46.906Z,76.9
2018-01-29T11:37:57.112Z,76.33
2018-01-29T11:39:07.278Z,76.33
2018-01-29T11:40:17.467Z,76.62
2018-01-29T11:41:27.674Z,76.71
2018-01-29T11:42:37.567Z,76.52
2018-01-29T11:43:47.689Z,76.42
2018-01-29T11:44:57.876Z,76.71
2018-01-29T11:46:08.184Z,76.62
2018-01-29T11:47:18.456Z,76.9
2018-01-29T11:48:28.611Z,76.52
2018-01-29T11:49:38.833Z,76.52
2018-01-29T11:50:49.044Z,75.95
2018-01-29T11:51:59.182Z,76.23
2018-01-29T11:53:09.330Z,76.42
2018-01-29T11:54:19.750Z,76.52
2018-01-29T11:55:29.924Z,76.52
2018-01-29T11:56:40.070Z,76.62
2018-01-29T11:57:50.284Z,76.62
2018-01-29T11:59:00.498Z,76.62
2018-01-29T12:00:10.734Z,76.33
2018-01-29T12:01:20.892Z,76.33
2018-01-29T12:02:31.053Z,76.62
2018-01-29T12:03:41.219Z,76.62
2018-01-29T12:04:51.356Z,76.71
2018-01-29T12:06:01.484Z,76.52
2018-01-29T12:07:11.627Z,76.52
2018-01-29T12:08:21.800Z,76.62
2018-01-29T12:09:32.936Z,77
2018-01-29T12:10:43.186Z,76.62
2018-01-29T12:11:53.357Z,76.62
2018-01-29T12:13:03.489Z,76.52
2018-01-29T12:14:13.640Z,76.33
2018-01-29T12:15:23.835Z,76.04
2018-01-29T12:16:33.953Z,75.76
2018-01-29T12:17:45.067Z,76.42
2018-01-29T12:18:55.222Z,76.42
2018-01-29T12:20:05.503Z,75.95
2018-01-29T12:21:15.712Z,76.52
2018-01-29T12:22:25.902Z,76.33
2018-01-29T12:23:36.134Z,76.71
2018-01-29T12:24:46.293Z,76.14
2018-01-29T12:25:56.539Z,76.23
2018-01-29T12:27:06.748Z,75.95
2018-01-29T12:28:17.033Z,75.95
2018-01-29T12:29:27.163Z,76.14
2018-01-29T12:30:37.064Z,76.33
2018-01-29T12:31:47.297Z,76.04
2018-01-29T12:32:57.552Z,75.95
2018-01-29T12:34:07.720Z,76.23
2018-01-29T12:35:17.862Z,75.95
2018-01-29T12:36:27.736Z,75.85
2018-01-29T12:37:37.886Z,75.95
2018-01-29T12:38:48.070Z,75.85
2018-01-29T12:39:58.353Z,75.95
2018-01-29T12:41:08.530Z,75.95
2018-01-29T12:42:18.739Z,75.95
2018-01-29T12:43:28.879Z,76.14
2018-01-29T12:44:39.049Z,76.23
2018-01-29T12:45:49.221Z,76.42
2018-01-29T12:46:59.387Z,76.2
2018-01-29T12:48:09.539Z,76.52
2018-01-29T12:49:19.676Z,76.42
2018-01-29T12:50:29.820Z,76.62
2018-01-29T12:51:40.006Z,76.71
2018-01-29T12:52:49.928Z,76.62
2018-01-29T12:54:00.070Z,76.62
2018-01-29T12:55:10.207Z,76.71
2018-01-29T12:56:20.453Z,76.81
2018-01-29T12:57:30.614Z,76.9
2018-01-29T12:58:40.856Z,77.19
2018-01-29T12:59:51.086Z,76.42
2018-01-29T13:01:01.231Z,76.52
2018-01-29T13:02:11.408Z,76.67
2018-01-29T13:03:21.628Z,76.67
2018-01-29T13:04:31.795Z,77
2018-01-29T13:05:41.976Z,77.19
2018-01-29T13:06:52.139Z,77.09
2018-01-29T13:08:02.284Z,77.09
2018-01-29T13:09:12.408Z,77.09
2018-01-29T13:10:22.568Z,77.09
2018-01-29T13:11:32.751Z,77.19
2018-01-29T13:12:43.028Z,76.62
2018-01-29T13:13:54.175Z,76.62
2018-01-29T13:15:04.345Z,76.9
2018-01-29T13:16:14.581Z,76.52
2018-01-29T13:17:24.942Z,77
2018-01-29T13:18:35.083Z,76.42
2018-01-29T13:19:45.439Z,76.37
2018-01-29T13:20:55.732Z,75.79
2018-01-29T13:22:05.874Z,75.7
2018-01-29T13:23:16.051Z,76.08
2018-01-29T13:24:26.358Z,75.51
2018-01-29T13:25:36.542Z,75.32
2018-01-29T13:26:46.442Z,74.84
2018-01-29T13:27:56.603Z,74.65
2018-01-29T13:29:06.545Z,74.55
2018-01-29T13:30:16.854Z,74.84
2018-01-29T13:31:26.716Z,74.65
2018-01-29T13:32:36.828Z,74.74
2018-01-29T13:33:47.056Z,75.22
2018-01-29T13:34:57.486Z,75.32
2018-01-29T13:36:07.624Z,75.22
2018-01-29T13:37:17.784Z,74.46
2018-01-29T13:38:27.714Z,74.84
2018-01-29T13:39:37.859Z,74.84
2018-01-29T13:40:48.000Z,75.03
2018-01-29T13:41:59.123Z,75.22
2018-01-29T13:43:09.318Z,75.32
2018-01-29T13:44:19.194Z,75.22
2018-01-29T13:45:29.323Z,74.93
2018-01-29T13:46:39.494Z,74.55
2018-01-29T13:47:49.782Z,75.22
2018-01-29T13:48:59.933Z,75.13
2018-01-29T13:50:10.079Z,74.65
2018-01-29T13:51:20.322Z,75.13
2018-01-29T13:52:30.518Z,74.84
2018-01-29T13:53:40.785Z,75.22
2018-01-29T13:54:50.946Z,75.22
2018-01-29T13:56:01.081Z,75.42
2018-01-29T13:57:11.210Z,75.22
2018-01-29T13:58:21.349Z,75.32
2018-01-29T13:59:31.479Z,74.93
2018-01-29T14:00:41.350Z,75.42
2018-01-29T14:01:51.520Z,75.22
2018-01-29T14:03:02.716Z,74.84
2018-01-29T14:04:12.878Z,75.03
2018-01-29T14:05:23.050Z,75.32
2018-01-29T14:06:33.298Z,75.22
2018-01-29T14:07:43.544Z,75.22
2018-01-29T14:08:53.732Z,75.13
2018-01-29T14:10:03.909Z,74.93
2018-01-29T14:11:14.133Z,75.22
2018-01-29T14:12:24.290Z,74.93
2018-01-29T14:13:34.519Z,75.13
2018-01-29T14:14:44.571Z,74.9
2018-01-29T14:15:54.731Z,74.32
2018-01-29T14:17:04.868Z,74.99
2018-01-29T14:18:15.025Z,74.8
2018-01-29T14:19:25.173Z,75.47
2018-01-29T14:20:35.304Z,74.9
2018-01-29T14:21:45.284Z,74.99
2018-01-29T14:22:55.446Z,74.32
2018-01-29T14:24:05.599Z,74.71
2018-01-29T14:25:15.873Z,74.99
2018-01-29T14:26:26.058Z,74.9
2018-01-29T14:27:36.291Z,75.09
2018-01-29T14:28:46.469Z,75.09
2018-01-29T14:29:56.632Z,74.99
2018-01-29T14:31:06.875Z,74.8
2018-01-29T14:32:17.041Z,75.09
2018-01-29T14:33:27.203Z,74.99
2018-01-29T14:34:37.348Z,74.9
2018-01-29T14:35:47.513Z,74.9
2018-01-29T14:36:57.675Z,75.37
2018-01-29T14:38:07.505Z,74.99
2018-01-29T14:39:17.652Z,74.99
2018-01-29T14:40:27.840Z,75.18
2018-01-29T14:41:37.972Z,74.42
2018-01-29T14:42:48.172Z,75.09
2018-01-29T14:43:58.429Z,75.18
2018-01-29T14:45:08.563Z,74.9
2018-01-29T14:46:18.811Z,74.9
2018-01-29T14:47:28.760Z,75.28
2018-01-29T14:48:38.929Z,75.37
2018-01-29T14:49:49.097Z,74.99
2018-01-29T14:50:59.264Z,75.18
2018-01-29T14:52:09.405Z,75.18
2018-01-29T14:53:19.530Z,75.47
2018-01-29T14:54:29.649Z,75.18
2018-01-29T14:55:39.789Z,75.57
2018-01-29T14:56:50.062Z,75.47
2018-01-29T14:58:00.069Z,75.66
2018-01-29T14:59:10.256Z,76.04
2018-01-29T15:00:20.577Z,76.23
2018-01-29T15:01:30.887Z,75.28
2018-01-29T15:02:40.856Z,75.47
2018-01-29T15:03:51.202Z,75.76
2018-01-29T15:05:02.380Z,76.04
2018-01-29T15:06:12.746Z,75.95
2018-01-29T15:07:22.885Z,75.66
2018-01-29T15:08:33.181Z,75.66